sensor_id;sensor_type;location;lat;lon;timestamp;P1;durP1;ratioP1;P2;durP2;ratioP2
52542;SDS011;38449;52.696;6.186;2022-12-13T00:00:15;34.53;;;15.95;;
52542;SDS011;38449;52.696;6.186;2022-12-13T00:02:42;29.90;;;15.07;;
52542;SDS011;38449;52.696;6.186;2022-12-13T00:05:10;28.48;;;15.15;;
52542;SDS011;38449;52.696;6.186;2022-12-13T00:07:36;29.88;;;15.07;;
52542;SDS011;38449;52.696;6.186;2022-12-13T00:10:03;32.72;;;14.88;;
52542;SDS011;38449;52.696;6.186;2022-12-13T00:12:29;29.58;;;15.57;;
52542;SDS011;38449;52.696;6.186;2022-12-13T00:14:55;32.22;;;15.68;;
52542;SDS011;38449;52.696;6.186;2022-12-13T00:17:20;28.85;;;14.43;;
52542;SDS011;38449;52.696;6.186;2022-12-13T00:19:46;27.38;;;14.80;;
52542;SDS011;38449;52.696;6.186;2022-12-13T00:22:12;28.10;;;14.43;;
52542;SDS011;38449;52.696;6.186;2022-12-13T00:24:38;32.03;;;15.20;;
52542;SDS011;38449;52.696;6.186;2022-12-13T00:27:04;31.17;;;16.25;;
52542;SDS011;38449;52.696;6.186;2022-12-13T00:29:30;32.65;;;16.10;;
52542;SDS011;38449;52.696;6.186;2022-12-13T00:31:56;30.77;;;15.25;;
52542;SDS011;38449;52.696;6.186;2022-12-13T00:34:22;31.15;;;15.00;;
52542;SDS011;38449;52.696;6.186;2022-12-13T00:36:47;30.17;;;14.82;;
52542;SDS011;38449;52.696;6.186;2022-12-13T00:39:13;30.85;;;16.13;;
52542;SDS011;38449;52.696;6.186;2022-12-13T00:41:40;27.38;;;14.13;;
52542;SDS011;38449;52.696;6.186;2022-12-13T00:44:08;32.58;;;15.77;;
52542;SDS011;38449;52.696;6.186;2022-12-13T00:46:36;39.10;;;17.35;;
52542;SDS011;38449;52.696;6.186;2022-12-13T00:49:03;31.67;;;15.65;;
52542;SDS011;38449;52.696;6.186;2022-12-13T00:51:30;32.33;;;17.15;;
52542;SDS011;38449;52.696;6.186;2022-12-13T00:53:56;32.83;;;14.90;;
52542;SDS011;38449;52.696;6.186;2022-12-13T00:56:23;33.53;;;16.38;;
52542;SDS011;38449;52.696;6.186;2022-12-13T00:58:51;30.80;;;14.52;;
52542;SDS011;38449;52.696;6.186;2022-12-13T01:01:19;32.92;;;14.60;;
52542;SDS011;38449;52.696;6.186;2022-12-13T01:03:46;31.55;;;15.27;;
52542;SDS011;38449;52.696;6.186;2022-12-13T01:06:13;32.85;;;14.23;;
52542;SDS011;38449;52.696;6.186;2022-12-13T01:08:42;32.92;;;15.45;;
52542;SDS011;38449;52.696;6.186;2022-12-13T01:11:09;33.33;;;16.02;;
52542;SDS011;38449;52.696;6.186;2022-12-13T01:13:37;30.77;;;15.80;;
52542;SDS011;38449;52.696;6.186;2022-12-13T01:16:04;30.90;;;15.38;;
52542;SDS011;38449;52.696;6.186;2022-12-13T01:18:31;33.40;;;15.82;;
52542;SDS011;38449;52.696;6.186;2022-12-13T01:20:58;31.15;;;14.25;;
52542;SDS011;38449;52.696;6.186;2022-12-13T01:23:28;26.70;;;13.30;;
52542;SDS011;38449;52.696;6.186;2022-12-13T01:25:55;29.50;;;15.02;;
52542;SDS011;38449;52.696;6.186;2022-12-13T01:28:21;30.85;;;13.82;;
52542;SDS011;38449;52.696;6.186;2022-12-13T01:30:54;26.58;;;13.65;;
52542;SDS011;38449;52.696;6.186;2022-12-13T01:33:20;26.50;;;13.38;;
52542;SDS011;38449;52.696;6.186;2022-12-13T01:35:46;28.23;;;13.57;;
52542;SDS011;38449;52.696;6.186;2022-12-13T01:38:12;27.73;;;13.80;;
52542;SDS011;38449;52.696;6.186;2022-12-13T01:40:44;29.67;;;13.35;;
52542;SDS011;38449;52.696;6.186;2022-12-13T01:43:11;30.40;;;13.60;;
52542;SDS011;38449;52.696;6.186;2022-12-13T01:45:38;27.33;;;13.13;;
52542;SDS011;38449;52.696;6.186;2022-12-13T01:48:04;27.90;;;13.52;;
52542;SDS011;38449;52.696;6.186;2022-12-13T01:50:35;23.27;;;12.55;;
52542;SDS011;38449;52.696;6.186;2022-12-13T01:53:05;26.02;;;12.70;;
52542;SDS011;38449;52.696;6.186;2022-12-13T01:55:35;30.85;;;14.57;;
52542;SDS011;38449;52.696;6.186;2022-12-13T01:58:02;31.05;;;14.93;;
52542;SDS011;38449;52.696;6.186;2022-12-13T02:00:29;27.23;;;13.23;;
52542;SDS011;38449;52.696;6.186;2022-12-13T02:02:58;27.35;;;14.55;;
52542;SDS011;38449;52.696;6.186;2022-12-13T02:08:12;28.38;;;14.20;;
52542;SDS011;38449;52.696;6.186;2022-12-13T02:10:39;25.55;;;12.77;;
52542;SDS011;38449;52.696;6.186;2022-12-13T02:13:06;29.13;;;13.10;;
52542;SDS011;38449;52.696;6.186;2022-12-13T02:15:36;27.92;;;13.50;;
52542;SDS011;38449;52.696;6.186;2022-12-13T02:29:09;28.95;;;13.35;;
52542;SDS011;38449;52.696;6.186;2022-12-13T02:31:50;34.15;;;14.20;;
52542;SDS011;38449;52.696;6.186;2022-12-13T02:34:55;26.90;;;12.77;;
52542;SDS011;38449;52.696;6.186;2022-12-13T02:37:50;28.02;;;13.55;;
52542;SDS011;38449;52.696;6.186;2022-12-13T02:40:41;26.67;;;13.32;;
52542;SDS011;38449;52.696;6.186;2022-12-13T02:43:26;30.35;;;14.00;;
52542;SDS011;38449;52.696;6.186;2022-12-13T02:45:57;31.73;;;13.55;;
52542;SDS011;38449;52.696;6.186;2022-12-13T02:48:26;31.75;;;14.55;;
52542;SDS011;38449;52.696;6.186;2022-12-13T02:50:53;30.33;;;14.30;;
52542;SDS011;38449;52.696;6.186;2022-12-13T02:53:21;30.50;;;15.38;;
52542;SDS011;38449;52.696;6.186;2022-12-13T02:55:47;29.63;;;13.52;;
52542;SDS011;38449;52.696;6.186;2022-12-13T02:58:19;30.50;;;14.65;;
52542;SDS011;38449;52.696;6.186;2022-12-13T03:00:51;27.40;;;13.30;;
52542;SDS011;38449;52.696;6.186;2022-12-13T03:18:04;31.85;;;15.73;;
52542;SDS011;38449;52.696;6.186;2022-12-13T03:20:39;32.47;;;14.40;;
52542;SDS011;38449;52.696;6.186;2022-12-13T03:23:29;30.17;;;14.07;;
52542;SDS011;38449;52.696;6.186;2022-12-13T03:25:56;26.05;;;13.20;;
52542;SDS011;38449;52.696;6.186;2022-12-13T03:28:26;29.25;;;13.93;;
52542;SDS011;38449;52.696;6.186;2022-12-13T03:30:52;27.42;;;14.60;;
52542;SDS011;38449;52.696;6.186;2022-12-13T03:33:18;28.08;;;13.75;;
52542;SDS011;38449;52.696;6.186;2022-12-13T03:35:43;29.20;;;13.85;;
52542;SDS011;38449;52.696;6.186;2022-12-13T03:38:10;27.45;;;13.48;;
52542;SDS011;38449;52.696;6.186;2022-12-13T03:40:40;26.20;;;13.68;;
52542;SDS011;38449;52.696;6.186;2022-12-13T03:43:06;29.67;;;14.52;;
52542;SDS011;38449;52.696;6.186;2022-12-13T03:45:31;29.13;;;13.35;;
52542;SDS011;38449;52.696;6.186;2022-12-13T03:47:57;28.42;;;12.75;;
52542;SDS011;38449;52.696;6.186;2022-12-13T03:50:22;26.00;;;13.82;;
52542;SDS011;38449;52.696;6.186;2022-12-13T03:52:48;27.40;;;12.65;;
52542;SDS011;38449;52.696;6.186;2022-12-13T03:55:15;26.48;;;12.90;;
52542;SDS011;38449;52.696;6.186;2022-12-13T03:57:42;23.27;;;12.63;;
52542;SDS011;38449;52.696;6.186;2022-12-13T04:00:07;33.35;;;13.35;;
52542;SDS011;38449;52.696;6.186;2022-12-13T04:02:33;24.55;;;11.90;;
52542;SDS011;38449;52.696;6.186;2022-12-13T04:04:59;22.23;;;11.77;;
52542;SDS011;38449;52.696;6.186;2022-12-13T04:07:24;33.78;;;13.68;;
52542;SDS011;38449;52.696;6.186;2022-12-13T04:09:50;28.08;;;13.10;;
52542;SDS011;38449;52.696;6.186;2022-12-13T04:12:16;29.95;;;13.48;;
52542;SDS011;38449;52.696;6.186;2022-12-13T04:15:00;26.65;;;14.02;;
52542;SDS011;38449;52.696;6.186;2022-12-13T04:17:26;29.15;;;13.70;;
52542;SDS011;38449;52.696;6.186;2022-12-13T04:19:51;25.45;;;14.05;;
52542;SDS011;38449;52.696;6.186;2022-12-13T04:22:17;27.15;;;13.20;;
52542;SDS011;38449;52.696;6.186;2022-12-13T04:24:42;28.50;;;13.75;;
52542;SDS011;38449;52.696;6.186;2022-12-13T04:27:08;22.33;;;12.57;;
52542;SDS011;38449;52.696;6.186;2022-12-13T04:29:33;26.00;;;12.93;;
52542;SDS011;38449;52.696;6.186;2022-12-13T04:31:59;27.25;;;14.52;;
52542;SDS011;38449;52.696;6.186;2022-12-13T04:34:24;26.95;;;13.73;;
52542;SDS011;38449;52.696;6.186;2022-12-13T04:36:50;26.58;;;13.57;;
52542;SDS011;38449;52.696;6.186;2022-12-13T04:39:16;26.88;;;14.23;;
52542;SDS011;38449;52.696;6.186;2022-12-13T04:41:41;29.73;;;14.57;;
52542;SDS011;38449;52.696;6.186;2022-12-13T04:44:08;28.50;;;14.15;;
52542;SDS011;38449;52.696;6.186;2022-12-13T04:46:34;29.50;;;14.50;;
52542;SDS011;38449;52.696;6.186;2022-12-13T04:49:00;29.70;;;14.68;;
52542;SDS011;38449;52.696;6.186;2022-12-13T04:51:26;27.33;;;12.77;;
52542;SDS011;38449;52.696;6.186;2022-12-13T04:53:52;29.65;;;12.60;;
52542;SDS011;38449;52.696;6.186;2022-12-13T04:56:17;24.10;;;13.30;;
52542;SDS011;38449;52.696;6.186;2022-12-13T04:58:43;29.75;;;14.25;;
52542;SDS011;38449;52.696;6.186;2022-12-13T05:01:09;28.88;;;13.68;;
52542;SDS011;38449;52.696;6.186;2022-12-13T05:03:36;24.25;;;12.80;;
52542;SDS011;38449;52.696;6.186;2022-12-13T05:06:05;26.48;;;13.07;;
52542;SDS011;38449;52.696;6.186;2022-12-13T05:08:31;25.95;;;13.27;;
52542;SDS011;38449;52.696;6.186;2022-12-13T05:10:57;24.67;;;12.93;;
52542;SDS011;38449;52.696;6.186;2022-12-13T05:13:22;29.42;;;15.23;;
52542;SDS011;38449;52.696;6.186;2022-12-13T05:15:59;22.48;;;12.43;;
52542;SDS011;38449;52.696;6.186;2022-12-13T05:18:27;25.65;;;13.45;;
52542;SDS011;38449;52.696;6.186;2022-12-13T05:20:53;29.92;;;13.40;;
52542;SDS011;38449;52.696;6.186;2022-12-13T05:23:20;32.55;;;15.32;;
52542;SDS011;38449;52.696;6.186;2022-12-13T05:25:47;26.52;;;13.60;;
52542;SDS011;38449;52.696;6.186;2022-12-13T05:28:13;29.05;;;13.27;;
52542;SDS011;38449;52.696;6.186;2022-12-13T05:30:39;27.65;;;14.85;;
52542;SDS011;38449;52.696;6.186;2022-12-13T05:33:05;30.08;;;14.45;;
52542;SDS011;38449;52.696;6.186;2022-12-13T05:35:30;29.48;;;15.13;;
52542;SDS011;38449;52.696;6.186;2022-12-13T05:37:56;29.45;;;14.70;;
52542;SDS011;38449;52.696;6.186;2022-12-13T05:40:22;31.67;;;14.27;;
52542;SDS011;38449;52.696;6.186;2022-12-13T05:42:49;28.83;;;13.55;;
52542;SDS011;38449;52.696;6.186;2022-12-13T05:45:15;30.55;;;14.40;;
52542;SDS011;38449;52.696;6.186;2022-12-13T05:47:42;29.45;;;13.75;;
52542;SDS011;38449;52.696;6.186;2022-12-13T05:50:08;33.65;;;13.77;;
52542;SDS011;38449;52.696;6.186;2022-12-13T05:52:34;32.00;;;14.82;;
52542;SDS011;38449;52.696;6.186;2022-12-13T05:55:00;32.15;;;14.68;;
52542;SDS011;38449;52.696;6.186;2022-12-13T05:57:26;28.77;;;13.70;;
52542;SDS011;38449;52.696;6.186;2022-12-13T05:59:52;27.10;;;12.75;;
52542;SDS011;38449;52.696;6.186;2022-12-13T06:02:17;29.35;;;13.75;;
52542;SDS011;38449;52.696;6.186;2022-12-13T06:04:43;31.65;;;14.13;;
52542;SDS011;38449;52.696;6.186;2022-12-13T06:07:09;30.40;;;13.13;;
52542;SDS011;38449;52.696;6.186;2022-12-13T06:09:35;28.30;;;14.15;;
52542;SDS011;38449;52.696;6.186;2022-12-13T06:12:01;29.80;;;14.15;;
52542;SDS011;38449;52.696;6.186;2022-12-13T06:14:26;26.75;;;13.98;;
52542;SDS011;38449;52.696;6.186;2022-12-13T06:16:54;29.23;;;14.18;;
52542;SDS011;38449;52.696;6.186;2022-12-13T06:19:20;29.40;;;13.55;;
52542;SDS011;38449;52.696;6.186;2022-12-13T06:21:47;28.58;;;14.35;;
52542;SDS011;38449;52.696;6.186;2022-12-13T06:24:16;26.50;;;14.07;;
52542;SDS011;38449;52.696;6.186;2022-12-13T06:26:43;29.63;;;13.82;;
52542;SDS011;38449;52.696;6.186;2022-12-13T06:29:09;33.10;;;14.77;;
52542;SDS011;38449;52.696;6.186;2022-12-13T06:31:35;30.13;;;14.13;;
52542;SDS011;38449;52.696;6.186;2022-12-13T06:34:01;27.55;;;14.18;;
52542;SDS011;38449;52.696;6.186;2022-12-13T06:36:29;26.85;;;13.50;;
52542;SDS011;38449;52.696;6.186;2022-12-13T06:38:55;27.55;;;14.32;;
52542;SDS011;38449;52.696;6.186;2022-12-13T06:41:21;29.75;;;13.88;;
52542;SDS011;38449;52.696;6.186;2022-12-13T06:43:46;28.48;;;14.10;;
52542;SDS011;38449;52.696;6.186;2022-12-13T06:46:12;27.42;;;13.35;;
52542;SDS011;38449;52.696;6.186;2022-12-13T06:48:39;29.63;;;14.45;;
52542;SDS011;38449;52.696;6.186;2022-12-13T06:51:06;29.95;;;14.93;;
52542;SDS011;38449;52.696;6.186;2022-12-13T06:53:33;29.20;;;15.35;;
52542;SDS011;38449;52.696;6.186;2022-12-13T06:56:04;28.25;;;13.63;;
52542;SDS011;38449;52.696;6.186;2022-12-13T06:58:32;28.98;;;14.93;;
52542;SDS011;38449;52.696;6.186;2022-12-13T07:01:05;30.30;;;14.35;;
52542;SDS011;38449;52.696;6.186;2022-12-13T07:03:41;32.53;;;15.65;;
52542;SDS011;38449;52.696;6.186;2022-12-13T07:06:15;29.77;;;14.18;;
52542;SDS011;38449;52.696;6.186;2022-12-13T07:08:43;28.27;;;13.85;;
52542;SDS011;38449;52.696;6.186;2022-12-13T07:11:12;28.45;;;15.13;;
52542;SDS011;38449;52.696;6.186;2022-12-13T07:13:39;31.58;;;14.93;;
52542;SDS011;38449;52.696;6.186;2022-12-13T07:16:06;31.30;;;15.02;;
52542;SDS011;38449;52.696;6.186;2022-12-13T07:18:32;28.58;;;13.90;;
52542;SDS011;38449;52.696;6.186;2022-12-13T07:21:04;34.55;;;14.75;;
52542;SDS011;38449;52.696;6.186;2022-12-13T07:23:30;31.23;;;14.52;;
52542;SDS011;38449;52.696;6.186;2022-12-13T07:25:56;36.92;;;15.88;;
52542;SDS011;38449;52.696;6.186;2022-12-13T07:28:21;30.90;;;15.52;;
52542;SDS011;38449;52.696;6.186;2022-12-13T07:30:47;35.92;;;14.18;;
52542;SDS011;38449;52.696;6.186;2022-12-13T07:33:13;31.58;;;15.25;;
52542;SDS011;38449;52.696;6.186;2022-12-13T07:35:39;38.75;;;17.23;;
52542;SDS011;38449;52.696;6.186;2022-12-13T07:38:06;34.80;;;16.88;;
52542;SDS011;38449;52.696;6.186;2022-12-13T07:40:33;31.33;;;15.05;;
52542;SDS011;38449;52.696;6.186;2022-12-13T07:43:00;32.35;;;14.93;;
52542;SDS011;38449;52.696;6.186;2022-12-13T07:45:30;28.52;;;15.48;;
52542;SDS011;38449;52.696;6.186;2022-12-13T07:47:58;32.78;;;14.52;;
52542;SDS011;38449;52.696;6.186;2022-12-13T07:50:27;32.50;;;15.13;;
52542;SDS011;38449;52.696;6.186;2022-12-13T07:52:53;31.40;;;14.75;;
52542;SDS011;38449;52.696;6.186;2022-12-13T07:55:18;38.10;;;15.90;;
52542;SDS011;38449;52.696;6.186;2022-12-13T07:57:45;38.78;;;15.10;;
52542;SDS011;38449;52.696;6.186;2022-12-13T08:00:11;35.17;;;18.00;;
52542;SDS011;38449;52.696;6.186;2022-12-13T08:02:38;33.53;;;15.85;;
52542;SDS011;38449;52.696;6.186;2022-12-13T08:05:04;28.67;;;14.40;;
52542;SDS011;38449;52.696;6.186;2022-12-13T08:07:30;33.83;;;15.45;;
52542;SDS011;38449;52.696;6.186;2022-12-13T08:09:56;33.80;;;16.88;;
52542;SDS011;38449;52.696;6.186;2022-12-13T08:12:22;38.47;;;19.40;;
52542;SDS011;38449;52.696;6.186;2022-12-13T08:14:47;33.08;;;16.63;;
52542;SDS011;38449;52.696;6.186;2022-12-13T08:17:13;38.53;;;17.40;;
52542;SDS011;38449;52.696;6.186;2022-12-13T08:19:39;38.72;;;17.17;;
52542;SDS011;38449;52.696;6.186;2022-12-13T08:22:04;38.50;;;18.00;;
52542;SDS011;38449;52.696;6.186;2022-12-13T08:24:30;43.80;;;18.92;;
52542;SDS011;38449;52.696;6.186;2022-12-13T08:26:57;38.42;;;17.73;;
52542;SDS011;38449;52.696;6.186;2022-12-13T08:29:27;44.42;;;17.55;;
52542;SDS011;38449;52.696;6.186;2022-12-13T08:31:54;37.22;;;18.80;;
52542;SDS011;38449;52.696;6.186;2022-12-13T08:34:19;35.30;;;16.70;;
52542;SDS011;38449;52.696;6.186;2022-12-13T08:36:48;39.78;;;16.52;;
52542;SDS011;38449;52.696;6.186;2022-12-13T08:39:14;33.58;;;16.95;;
52542;SDS011;38449;52.696;6.186;2022-12-13T08:41:39;34.75;;;17.13;;
52542;SDS011;38449;52.696;6.186;2022-12-13T08:44:06;36.55;;;16.33;;
52542;SDS011;38449;52.696;6.186;2022-12-13T08:46:32;35.13;;;17.65;;
52542;SDS011;38449;52.696;6.186;2022-12-13T08:48:57;39.47;;;17.65;;
52542;SDS011;38449;52.696;6.186;2022-12-13T08:51:23;35.25;;;17.65;;
52542;SDS011;38449;52.696;6.186;2022-12-13T08:53:52;42.72;;;20.38;;
52542;SDS011;38449;52.696;6.186;2022-12-13T08:56:17;43.45;;;19.77;;
52542;SDS011;38449;52.696;6.186;2022-12-13T08:58:43;36.38;;;18.70;;
52542;SDS011;38449;52.696;6.186;2022-12-13T09:01:12;38.38;;;19.48;;
52542;SDS011;38449;52.696;6.186;2022-12-13T09:03:38;37.67;;;18.80;;
52542;SDS011;38449;52.696;6.186;2022-12-13T09:06:04;44.22;;;20.30;;
52542;SDS011;38449;52.696;6.186;2022-12-13T09:08:34;37.53;;;20.17;;
52542;SDS011;38449;52.696;6.186;2022-12-13T09:11:01;42.78;;;20.92;;
52542;SDS011;38449;52.696;6.186;2022-12-13T09:13:29;40.30;;;19.50;;
52542;SDS011;38449;52.696;6.186;2022-12-13T09:15:56;44.10;;;20.25;;
52542;SDS011;38449;52.696;6.186;2022-12-13T09:18:22;46.38;;;22.02;;
52542;SDS011;38449;52.696;6.186;2022-12-13T09:20:48;47.67;;;21.10;;
52542;SDS011;38449;52.696;6.186;2022-12-13T09:23:14;59.28;;;27.70;;
52542;SDS011;38449;52.696;6.186;2022-12-13T09:25:42;40.58;;;21.17;;
52542;SDS011;38449;52.696;6.186;2022-12-13T09:28:07;50.05;;;31.23;;
52542;SDS011;38449;52.696;6.186;2022-12-13T09:30:34;51.10;;;29.55;;
52542;SDS011;38449;52.696;6.186;2022-12-13T09:33:01;43.78;;;21.63;;
52542;SDS011;38449;52.696;6.186;2022-12-13T09:35:27;43.50;;;20.45;;
52542;SDS011;38449;52.696;6.186;2022-12-13T09:37:53;44.33;;;21.85;;
52542;SDS011;38449;52.696;6.186;2022-12-13T09:40:21;36.70;;;18.92;;
52542;SDS011;38449;52.696;6.186;2022-12-13T09:42:49;37.60;;;20.33;;
52542;SDS011;38449;52.696;6.186;2022-12-13T09:45:17;42.28;;;21.45;;
52542;SDS011;38449;52.696;6.186;2022-12-13T09:47:44;37.20;;;19.70;;
52542;SDS011;38449;52.696;6.186;2022-12-13T09:50:15;34.97;;;17.85;;
52542;SDS011;38449;52.696;6.186;2022-12-13T09:52:50;37.95;;;18.20;;
52542;SDS011;38449;52.696;6.186;2022-12-13T09:57:42;39.50;;;19.83;;
52542;SDS011;38449;52.696;6.186;2022-12-13T10:00:11;40.08;;;21.48;;
52542;SDS011;38449;52.696;6.186;2022-12-13T10:02:45;41.10;;;19.67;;
52542;SDS011;38449;52.696;6.186;2022-12-13T10:05:30;39.00;;;19.35;;
52542;SDS011;38449;52.696;6.186;2022-12-13T10:07:57;38.95;;;20.15;;
52542;SDS011;38449;52.696;6.186;2022-12-13T10:10:24;45.03;;;21.50;;
52542;SDS011;38449;52.696;6.186;2022-12-13T10:12:55;38.53;;;19.88;;
52542;SDS011;38449;52.696;6.186;2022-12-13T10:15:35;45.13;;;20.08;;
52542;SDS011;38449;52.696;6.186;2022-12-13T10:18:05;44.85;;;21.35;;
52542;SDS011;38449;52.696;6.186;2022-12-13T10:20:33;44.58;;;22.23;;
52542;SDS011;38449;52.696;6.186;2022-12-13T10:22:59;39.72;;;20.10;;
52542;SDS011;38449;52.696;6.186;2022-12-13T10:25:40;38.13;;;20.88;;
52542;SDS011;38449;52.696;6.186;2022-12-13T10:28:15;38.40;;;20.05;;
52542;SDS011;38449;52.696;6.186;2022-12-13T10:30:42;39.78;;;20.85;;
52542;SDS011;38449;52.696;6.186;2022-12-13T10:33:18;36.17;;;18.65;;
52542;SDS011;38449;52.696;6.186;2022-12-13T10:38:34;39.05;;;19.83;;
52542;SDS011;38449;52.696;6.186;2022-12-13T10:41:01;37.33;;;19.52;;
52542;SDS011;38449;52.696;6.186;2022-12-13T10:43:27;30.48;;;17.10;;
52542;SDS011;38449;52.696;6.186;2022-12-13T10:50:59;35.53;;;19.23;;
52542;SDS011;38449;52.696;6.186;2022-12-13T10:53:38;50.33;;;28.20;;
52542;SDS011;38449;52.696;6.186;2022-12-13T10:56:11;34.20;;;19.15;;
52542;SDS011;38449;52.696;6.186;2022-12-13T10:58:44;39.80;;;20.25;;
52542;SDS011;38449;52.696;6.186;2022-12-13T11:01:20;33.45;;;18.90;;
52542;SDS011;38449;52.696;6.186;2022-12-13T11:06:48;31.95;;;18.52;;
52542;SDS011;38449;52.696;6.186;2022-12-13T11:09:14;38.10;;;22.30;;
52542;SDS011;38449;52.696;6.186;2022-12-13T11:11:40;40.08;;;20.77;;
52542;SDS011;38449;52.696;6.186;2022-12-13T11:14:12;42.25;;;21.58;;
52542;SDS011;38449;52.696;6.186;2022-12-13T11:16:41;40.17;;;20.45;;
52542;SDS011;38449;52.696;6.186;2022-12-13T11:19:20;39.03;;;20.15;;
52542;SDS011;38449;52.696;6.186;2022-12-13T11:21:49;39.85;;;21.13;;
52542;SDS011;38449;52.696;6.186;2022-12-13T11:24:20;38.35;;;21.45;;
52542;SDS011;38449;52.696;6.186;2022-12-13T11:26:56;38.33;;;20.30;;
52542;SDS011;38449;52.696;6.186;2022-12-13T11:40:21;40.67;;;20.77;;
52542;SDS011;38449;52.696;6.186;2022-12-13T11:45:51;37.30;;;19.73;;
52542;SDS011;38449;52.696;6.186;2022-12-13T11:48:23;39.55;;;20.30;;
52542;SDS011;38449;52.696;6.186;2022-12-13T11:51:00;41.22;;;19.48;;
52542;SDS011;38449;52.696;6.186;2022-12-13T11:53:34;36.88;;;19.63;;
52542;SDS011;38449;52.696;6.186;2022-12-13T12:01:14;36.85;;;19.95;;
52542;SDS011;38449;52.696;6.186;2022-12-13T12:04:00;31.95;;;18.27;;
52542;SDS011;38449;52.696;6.186;2022-12-13T12:06:39;33.33;;;18.40;;
52542;SDS011;38449;52.696;6.186;2022-12-13T12:09:13;30.20;;;17.33;;
52542;SDS011;38449;52.696;6.186;2022-12-13T12:11:46;31.15;;;17.60;;
52542;SDS011;38449;52.696;6.186;2022-12-13T12:14:28;32.15;;;17.00;;
52542;SDS011;38449;52.696;6.186;2022-12-13T12:17:11;31.25;;;16.55;;
52542;SDS011;38449;52.696;6.186;2022-12-13T12:19:38;31.02;;;17.02;;
52542;SDS011;38449;52.696;6.186;2022-12-13T12:22:10;38.05;;;19.02;;
52542;SDS011;38449;52.696;6.186;2022-12-13T12:24:56;36.08;;;19.08;;
52542;SDS011;38449;52.696;6.186;2022-12-13T12:27:32;33.53;;;18.65;;
52542;SDS011;38449;52.696;6.186;2022-12-13T12:43:32;36.55;;;19.23;;
52542;SDS011;38449;52.696;6.186;2022-12-13T12:51:29;35.30;;;18.42;;
52542;SDS011;38449;52.696;6.186;2022-12-13T12:57:08;37.53;;;19.83;;
52542;SDS011;38449;52.696;6.186;2022-12-13T12:59:53;33.25;;;17.80;;
52542;SDS011;38449;52.696;6.186;2022-12-13T13:02:56;35.05;;;18.25;;
52542;SDS011;38449;52.696;6.186;2022-12-13T13:05:44;33.83;;;17.92;;
52542;SDS011;38449;52.696;6.186;2022-12-13T13:08:44;34.92;;;17.88;;
52542;SDS011;38449;52.696;6.186;2022-12-13T13:11:14;35.40;;;19.45;;
52542;SDS011;38449;52.696;6.186;2022-12-13T13:13:45;35.75;;;19.55;;
52542;SDS011;38449;52.696;6.186;2022-12-13T13:24:17;36.33;;;20.35;;
52542;SDS011;38449;52.696;6.186;2022-12-13T13:26:49;40.03;;;21.63;;
52542;SDS011;38449;52.696;6.186;2022-12-13T13:34:31;36.72;;;23.02;;
52542;SDS011;38449;52.696;6.186;2022-12-13T13:36:59;37.40;;;19.05;;
52542;SDS011;38449;52.696;6.186;2022-12-13T13:41:55;37.83;;;20.55;;
52542;SDS011;38449;52.696;6.186;2022-12-13T13:47:14;36.45;;;20.65;;
52542;SDS011;38449;52.696;6.186;2022-12-13T13:52:36;36.25;;;20.13;;
52542;SDS011;38449;52.696;6.186;2022-12-13T14:00:38;38.25;;;19.85;;
52542;SDS011;38449;52.696;6.186;2022-12-13T14:11:56;37.33;;;19.73;;
52542;SDS011;38449;52.696;6.186;2022-12-13T14:15:05;39.05;;;21.23;;
52542;SDS011;38449;52.696;6.186;2022-12-13T14:23:40;38.90;;;21.77;;
52542;SDS011;38449;52.696;6.186;2022-12-13T14:26:31;37.72;;;19.38;;
52542;SDS011;38449;52.696;6.186;2022-12-13T14:29:13;34.50;;;19.08;;
52542;SDS011;38449;52.696;6.186;2022-12-13T14:31:43;39.22;;;20.48;;
52542;SDS011;38449;52.696;6.186;2022-12-13T14:34:21;39.50;;;20.60;;
52542;SDS011;38449;52.696;6.186;2022-12-13T14:37:03;39.65;;;21.40;;
52542;SDS011;38449;52.696;6.186;2022-12-13T14:39:30;39.03;;;20.73;;
52542;SDS011;38449;52.696;6.186;2022-12-13T14:41:59;38.38;;;19.75;;
52542;SDS011;38449;52.696;6.186;2022-12-13T14:44:27;32.63;;;18.83;;
52542;SDS011;38449;52.696;6.186;2022-12-13T14:46:58;38.05;;;21.00;;
52542;SDS011;38449;52.696;6.186;2022-12-13T14:49:30;38.97;;;21.42;;
52542;SDS011;38449;52.696;6.186;2022-12-13T14:52:01;37.90;;;21.17;;
52542;SDS011;38449;52.696;6.186;2022-12-13T14:54:53;39.17;;;19.05;;
52542;SDS011;38449;52.696;6.186;2022-12-13T14:57:23;38.55;;;20.63;;
52542;SDS011;38449;52.696;6.186;2022-12-13T14:59:52;37.83;;;20.67;;
52542;SDS011;38449;52.696;6.186;2022-12-13T15:02:29;38.00;;;19.50;;
52542;SDS011;38449;52.696;6.186;2022-12-13T15:04:57;36.17;;;18.77;;
52542;SDS011;38449;52.696;6.186;2022-12-13T15:07:29;37.42;;;20.48;;
52542;SDS011;38449;52.696;6.186;2022-12-13T15:09:58;38.00;;;20.38;;
52542;SDS011;38449;52.696;6.186;2022-12-13T15:12:26;39.83;;;20.02;;
52542;SDS011;38449;52.696;6.186;2022-12-13T15:15:03;36.92;;;19.98;;
52542;SDS011;38449;52.696;6.186;2022-12-13T15:17:32;40.65;;;20.35;;
52542;SDS011;38449;52.696;6.186;2022-12-13T15:19:59;41.00;;;22.58;;
52542;SDS011;38449;52.696;6.186;2022-12-13T15:22:26;42.30;;;20.90;;
52542;SDS011;38449;52.696;6.186;2022-12-13T15:24:53;41.67;;;21.52;;
52542;SDS011;38449;52.696;6.186;2022-12-13T15:27:19;46.38;;;23.10;;
52542;SDS011;38449;52.696;6.186;2022-12-13T15:29:46;42.78;;;22.98;;
52542;SDS011;38449;52.696;6.186;2022-12-13T15:32:14;42.25;;;22.27;;
52542;SDS011;38449;52.696;6.186;2022-12-13T15:34:43;41.13;;;21.63;;
52542;SDS011;38449;52.696;6.186;2022-12-13T15:37:17;37.55;;;19.02;;
52542;SDS011;38449;52.696;6.186;2022-12-13T15:39:47;38.95;;;20.45;;
52542;SDS011;38449;52.696;6.186;2022-12-13T15:44:52;33.60;;;18.90;;
52542;SDS011;38449;52.696;6.186;2022-12-13T15:47:21;40.25;;;20.52;;
52542;SDS011;38449;52.696;6.186;2022-12-13T15:52:25;42.75;;;21.95;;
52542;SDS011;38449;52.696;6.186;2022-12-13T15:57:30;40.88;;;21.60;;
52542;SDS011;38449;52.696;6.186;2022-12-13T16:00:46;46.45;;;22.85;;
52542;SDS011;38449;52.696;6.186;2022-12-13T16:03:17;47.22;;;22.55;;
52542;SDS011;38449;52.696;6.186;2022-12-13T16:05:48;41.05;;;22.02;;
52542;SDS011;38449;52.696;6.186;2022-12-13T16:10:53;42.83;;;22.08;;
52542;SDS011;38449;52.696;6.186;2022-12-13T16:13:22;40.65;;;21.42;;
52542;SDS011;38449;52.696;6.186;2022-12-13T16:15:49;47.00;;;23.15;;
52542;SDS011;38449;52.696;6.186;2022-12-13T16:18:23;46.67;;;23.40;;
52542;SDS011;38449;52.696;6.186;2022-12-13T16:21:07;47.33;;;24.63;;
52542;SDS011;38449;52.696;6.186;2022-12-13T16:23:34;43.40;;;23.48;;
52542;SDS011;38449;52.696;6.186;2022-12-13T16:26:00;50.30;;;24.40;;
52542;SDS011;38449;52.696;6.186;2022-12-13T16:28:26;53.65;;;29.48;;
52542;SDS011;38449;52.696;6.186;2022-12-13T16:33:17;45.05;;;22.58;;
52542;SDS011;38449;52.696;6.186;2022-12-13T16:35:50;47.55;;;24.50;;
52542;SDS011;38449;52.696;6.186;2022-12-13T16:38:18;46.80;;;23.88;;
52542;SDS011;38449;52.696;6.186;2022-12-13T16:40:44;46.58;;;25.02;;
52542;SDS011;38449;52.696;6.186;2022-12-13T16:43:13;64.68;;;32.63;;
52542;SDS011;38449;52.696;6.186;2022-12-13T16:45:42;49.00;;;26.20;;
52542;SDS011;38449;52.696;6.186;2022-12-13T16:48:10;45.65;;;24.60;;
52542;SDS011;38449;52.696;6.186;2022-12-13T16:51:02;50.90;;;25.30;;